Terminal Aerodrome Forecast
Issued by NWS

Home | Current Version | Previous Version | Text Only | Print | Product List | Glossary On
Versions: 1 2 3 4 5 6 7 8 9 10 11 12 13 14 15 16 17 18 19 20
000
FTUS41 KBGM 011000 AAB
TAFITH
TAF AMD
KITH 011008Z 0110/0206 34005KT P6SM -SHRA OVC045
      TEMPO 0110/0113 -SHRA
     FM011300 34010KT P6SM OVC035
      TEMPO 0202/0206 3SM -SHSN OVC018=

USA.gov is the U.S. government's official web portal to all federal, state and local government web resources and services.